Time;durP1;ratioP1;P1;durP2;ratioP2;P2;SDS_P1;SDS_P2;PMS_P1;PMS_P2;Temp;Humidity;BMP_temperature;BMP_pressure;BME280_temperature;BME280_humidity;BME280_pressure;Samples;Min_cycle;Max_cycle;Signal;HPM_P1;HPM_P2
2023/08/23 00:04:59;;;;;;;7.70;4.70;;;;;;;23.54;59.21;98019.47;10602030;28;20106;-66
2023/08/23 00:10:20;;;;;;;8.65;4.43;;;;;;;23.52;59.60;98018.72;10616917;28;20094;-67
2023/08/23 00:15:41;;;;;;;9.40;4.50;;;;;;;23.56;59.92;98021.66;10601458;28;20115;-68
2023/08/23 00:21:03;;;;;;;6.00;4.60;;;;;;;23.52;59.97;98022.28;10583029;28;20536;-67
2023/08/23 00:26:23;;;;;;;6.55;4.47;;;;;;;23.52;59.85;98019.44;10558582;28;20115;-68
2023/08/23 00:31:44;;;;;;;6.72;4.25;;;;;;;23.51;60.01;98026.53;10554880;28;20118;-68
2023/08/23 00:37:05;;;;;;;5.63;4.03;;;;;;;23.38;60.36;98014.19;10515952;28;20066;-68
2023/08/23 00:42:26;;;;;;;7.55;4.65;;;;;;;23.32;60.28;98021.84;10515679;28;20123;-68
2023/08/23 00:47:48;;;;;;;8.18;4.35;;;;;;;23.24;60.75;98030.22;10529659;28;20127;-68
2023/08/23 00:53:10;;;;;;;6.43;3.78;;;;;;;23.23;60.79;98032.34;10529522;28;20472;-68
2023/08/23 00:58:32;;;;;;;5.80;4.18;;;;;;;23.20;61.34;98025.16;10515092;28;20048;-68
2023/08/23 01:03:55;;;;;;;6.50;4.07;;;;;;;23.16;61.31;98027.19;10515249;28;20441;-68
2023/08/23 01:09:24;;;;;;;6.10;3.95;;;;;;;23.06;61.01;98022.72;10543760;28;20119;-68
2023/08/23 01:14:59;;;;;;;8.65;3.88;;;;;;;23.00;62.05;98028.28;10529331;28;20113;-68
2023/08/23 01:20:20;;;;;;;7.97;4.35;;;;;;;22.94;61.62;98030.97;10513826;28;20218;-67
2023/08/23 01:25:48;;;;;;;6.63;4.07;;;;;;;22.86;62.23;98027.94;10514110;28;20473;-68
2023/08/23 01:31:09;;;;;;;4.80;3.70;;;;;;;22.76;62.58;98019.13;10513579;28;20056;-68
2023/08/23 01:36:29;;;;;;;5.18;3.97;;;;;;;22.69;62.06;98026.09;10542681;28;20163;-67
2023/08/23 01:41:50;;;;;;;10.30;3.85;;;;;;;22.58;62.58;98025.09;10512386;28;20093;-68
2023/08/23 01:47:11;;;;;;;6.30;3.92;;;;;;;22.51;63.26;98027.09;10513179;28;20113;-68
2023/08/23 01:52:32;;;;;;;5.85;3.60;;;;;;;22.47;63.00;98024.13;10542043;28;20475;-67
2023/08/23 01:57:52;;;;;;;9.70;4.28;;;;;;;22.39;63.32;98037.41;10541884;28;20115;-68
2023/08/23 02:03:13;;;;;;;6.97;3.70;;;;;;;22.34;63.56;98022.38;10526346;28;20040;-68
2023/08/23 02:08:35;;;;;;;5.63;3.45;;;;;;;22.30;63.60;98016.59;10498484;28;20573;-68
2023/08/23 02:13:56;;;;;;;6.80;3.63;;;;;;;22.23;63.93;98017.84;10498124;28;20201;-67
2023/08/23 02:19:23;;;;;;;5.53;2.90;;;;;;;22.16;63.97;98019.78;10526003;28;20136;-67
2023/08/23 02:24:45;;;;;;;6.60;3.83;;;;;;;22.20;64.02;98011.38;10525754;28;20131;-68
2023/08/23 02:30:06;;;;;;;5.30;3.65;;;;;;;22.19;63.89;98014.88;10540582;28;20072;-68
2023/08/23 02:35:27;;;;;;;7.20;3.45;;;;;;;22.22;64.23;98002.91;10525530;28;20120;-68
2023/08/23 02:40:47;;;;;;;6.63;3.28;;;;;;;22.20;63.72;97990.75;10540081;28;20119;-67
2023/08/23 02:46:08;;;;;;;6.38;2.95;;;;;;;22.28;63.83;97990.94;10540146;28;20123;-68
2023/08/23 02:51:29;;;;;;;5.03;3.22;;;;;;;22.32;63.80;97982.53;10539900;28;20120;-68
2023/08/23 02:56:49;;;;;;;6.18;3.35;;;;;;;22.35;63.99;97995.38;10539680;28;20136;-67
2023/08/23 03:02:10;;;;;;;5.07;2.60;;;;;;;22.43;63.97;97995.59;10524568;28;20123;-68
2023/08/23 03:07:31;;;;;;;6.03;3.17;;;;;;;22.45;63.40;97995.63;10524426;28;20120;-68
2023/08/23 03:12:52;;;;;;;6.38;3.10;;;;;;;22.49;63.46;97992.91;10524498;28;20190;-67
2023/08/23 03:18:14;;;;;;;8.88;3.40;;;;;;;22.57;63.29;97989.53;10523766;28;20068;-68
2023/08/23 03:23:34;;;;;;;5.70;3.33;;;;;;;22.60;63.60;97990.31;10539194;28;20123;-68
2023/08/23 03:28:55;;;;;;;9.95;3.15;;;;;;;22.61;63.26;97988.91;10523822;28;20075;-68
2023/08/23 03:34:16;;;;;;;9.10;3.10;;;;;;;22.62;63.01;97987.50;10509793;28;20071;-68
2023/08/23 03:39:37;;;;;;;6.72;3.03;;;;;;;22.57;62.98;97980.97;10509678;28;20166;-68
2023/08/23 03:44:58;;;;;;;6.15;3.00;;;;;;;22.49;62.97;97987.22;10509641;28;20111;-68
2023/08/23 03:50:19;;;;;;;8.15;2.92;;;;;;;22.40;63.19;97994.09;10523680;28;20115;-68
2023/08/23 03:55:40;;;;;;;6.80;3.20;;;;;;;22.32;63.01;97996.03;10538611;28;20561;-68
2023/08/23 04:01:00;;;;;;;9.15;3.10;;;;;;;22.29;62.86;97989.53;10523111;28;20426;-66
2023/08/23 04:06:21;;;;;;;8.82;3.22;;;;;;;22.22;63.09;98005.03;10526971;28;20048;-67
2023/08/23 04:11:42;;;;;;;7.63;3.35;;;;;;;22.16;63.45;98010.53;10546166;28;20119;-68
2023/08/23 04:17:03;;;;;;;5.05;3.30;;;;;;;22.12;63.42;98007.59;10530675;28;20536;-68
2023/08/23 04:22:25;;;;;;;7.15;3.28;;;;;;;22.10;63.22;98021.72;10545241;28;20512;-68
2023/08/23 04:27:46;;;;;;;4.45;3.17;;;;;;;21.99;63.20;98018.59;10516359;28;20116;-67
2023/08/23 04:33:07;;;;;;;6.57;3.50;;;;;;;21.92;63.73;98017.00;10529981;28;20116;-68
2023/08/23 04:38:28;;;;;;;9.48;3.38;;;;;;;21.88;63.68;98016.16;10529665;28;20071;-67
2023/08/23 04:43:48;;;;;;;6.20;2.97;;;;;;;21.93;63.90;98029.81;10544628;28;20550;-68
2023/08/23 04:49:10;;;;;;;4.13;2.97;;;;;;;22.08;63.40;98013.88;10501983;28;20151;-68
2023/08/23 04:54:31;;;;;;;6.90;3.10;;;;;;;22.51;63.24;98026.38;10487754;28;20450;-68
2023/08/23 04:59:53;;;;;;;7.25;3.22;;;;;;;23.08;62.50;98025.63;10501237;28;20144;-68
2023/08/23 05:05:14;;;;;;;6.60;2.70;;;;;;;23.50;61.50;98036.50;10484882;28;20455;-66
2023/08/23 05:10:36;;;;;;;9.32;3.30;;;;;;;23.47;60.96;98042.84;10483283;28;20128;-67
2023/08/23 05:15:57;;;;;;;6.03;2.70;;;;;;;23.42;60.91;98027.78;10497404;28;20063;-68
2023/08/23 05:21:18;;;;;;;8.52;2.92;;;;;;;23.73;60.48;98045.53;10499538;28;20123;-67
2023/08/23 05:26:40;;;;;;;3.70;2.53;;;;;;;24.27;60.21;98038.03;10501334;28;20500;-68
2023/08/23 05:32:01;;;;;;;6.90;2.40;;;;;;;25.23;58.42;98045.34;10486547;28;20064;-67
2023/08/23 05:37:22;;;;;;;4.95;2.58;;;;;;;25.62;57.20;98051.56;10485816;28;20045;-68
2023/08/23 05:42:44;;;;;;;4.80;2.03;;;;;;;25.63;56.29;98061.59;10485786;28;20116;-68
2023/08/23 05:48:05;;;;;;;7.93;2.58;;;;;;;25.91;55.35;98059.13;10499074;28;20166;-68
2023/08/23 05:53:26;;;;;;;6.28;2.53;;;;;;;26.29;54.54;98058.09;10484927;28;20091;-68
2023/08/23 05:58:47;;;;;;;4.60;2.00;;;;;;;28.07;55.85;98060.78;10499661;28;20063;-68
2023/08/23 06:04:08;;;;;;;5.53;2.05;;;;;;;36.41;44.70;98068.44;10499655;28;20116;-71
2023/08/23 06:09:28;;;;;;;6.43;2.00;;;;;;;41.28;32.57;98078.59;10499258;28;20124;-71
2023/08/23 06:14:49;;;;;;;;;;;;;;;42.86;26.11;98081.06;10499460;28;20128;-71
2023/08/23 06:20:11;;;;;;;5.32;1.50;;;;;;;39.07;30.29;98081.44;10498469;28;20065;-70
2023/08/23 06:25:32;;;;;;;4.13;1.48;;;;;;;43.52;23.18;98077.94;10469996;28;20123;-71
2023/08/23 06:30:55;;;;;;;4.88;1.75;;;;;;;45.29;21.23;98087.25;10498122;28;20542;-70
2023/08/23 06:36:16;;;;;;;2.97;1.15;;;;;;;48.70;17.69;98068.41;10498282;28;20052;-72
2023/08/23 06:41:37;;;;;;;5.88;1.65;;;;;;;48.87;14.25;98070.72;10498185;28;20079;-73
2023/08/23 06:46:58;;;;;;;4.40;1.20;;;;;;;49.61;14.40;98065.19;10497974;28;20547;-71
2023/08/23 06:52:19;;;;;;;3.88;1.10;;;;;;;51.84;13.02;98067.22;10497777;28;20106;-72
2023/08/23 06:57:40;;;;;;;2.80;1.38;;;;;;;52.58;11.14;98067.38;10498041;28;20063;-72
2023/08/23 07:03:02;;;;;;;4.55;0.95;;;;;;;52.87;11.91;98071.22;10496656;28;20106;-70
2023/08/23 07:08:22;;;;;;;5.25;1.30;;;;;;;52.38;11.01;98073.06;10497268;28;20052;-72
2023/08/23 07:13:44;;;;;;;2.22;0.80;;;;;;;50.97;11.78;98068.59;10497274;28;20044;-71
2023/08/23 07:19:05;;;;;;;3.42;1.00;;;;;;;51.14;10.92;98079.66;10497281;28;20059;-72
2023/08/23 07:24:26;;;;;;;5.45;1.00;;;;;;;50.68;11.07;98076.44;10482378;28;20048;-71
2023/08/23 07:29:47;;;;;;;6.93;1.40;;;;;;;46.36;12.46;98084.22;10496888;28;20360;-72
2023/08/23 07:35:08;;;;;;;3.97;1.05;;;;;;;40.21;16.49;98091.06;10496972;28;20128;-71
2023/08/23 07:40:29;;;;;;;3.13;1.27;;;;;;;37.29;19.45;98083.06;10499324;28;20071;-71
2023/08/23 07:45:54;;;;;;;6.38;1.30;;;;;;;35.83;21.47;98101.31;10505237;28;20119;-71
2023/08/23 07:51:15;;;;;;;5.88;1.23;;;;;;;41.12;20.10;98080.13;10504331;28;20091;-73
2023/08/23 07:56:36;;;;;;;3.55;1.33;;;;;;;41.51;16.80;98097.97;10489675;28;20036;-72
2023/08/23 08:01:57;;;;;;;7.65;1.50;;;;;;;38.11;19.80;98093.22;10489305;28;20040;-72
2023/08/23 08:07:18;;;;;;;6.40;1.35;;;;;;;40.52;19.90;98096.22;10504663;28;20068;-72
2023/08/23 08:12:58;;;;;;;4.60;1.00;;;;;;;48.20;13.66;98100.56;10488912;28;20041;-73
2023/08/23 08:18:19;;;;;;;4.78;0.90;;;;;;;45.27;13.44;98108.00;10488551;28;20062;-71
2023/08/23 08:23:40;;;;;;;2.63;1.13;;;;;;;41.25;16.70;98108.78;10488679;28;20055;-72
2023/08/23 08:29:01;;;;;;;9.73;1.27;;;;;;;40.23;18.95;98099.75;10488211;28;20041;-71
2023/08/23 08:34:25;;;;;;;6.70;1.10;;;;;;;47.25;14.33;98109.38;10503355;28;20541;-73
2023/08/23 08:39:46;;;;;;;6.07;1.15;;;;;;;50.98;10.74;98104.94;10503126;28;20060;-73
2023/08/23 08:45:07;;;;;;;4.60;0.85;;;;;;;53.12;9.00;98114.16;10502764;28;20051;-72
2023/08/23 08:50:30;;;;;;;5.78;0.80;;;;;;;55.49;8.34;98111.41;10502069;28;20390;-72
2023/08/23 08:55:51;;;;;;;5.13;0.85;;;;;;;56.74;7.70;98110.63;10487570;28;20124;-72
2023/08/23 09:01:13;;;;;;;3.70;0.57;;;;;;;57.11;6.51;98103.34;10487340;28;20055;-73
2023/08/23 09:06:36;;;;;;;3.42;0.85;;;;;;;55.82;6.67;98089.84;10473236;28;20534;-73
2023/08/23 09:11:57;;;;;;;4.88;0.98;;;;;;;51.45;8.67;98097.66;10501735;28;20045;-73
2023/08/23 09:17:20;;;;;;;4.32;0.80;;;;;;;46.99;12.12;98099.53;10486713;28;20162;-71
2023/08/23 09:22:42;;;;;;;5.07;0.90;;;;;;;46.12;12.69;98092.56;10501132;28;20490;-72
2023/08/23 09:28:03;;;;;;;4.68;0.73;;;;;;;48.98;11.35;98086.06;10501249;28;20098;-72
2023/08/23 09:33:24;;;;;;;3.08;1.00;;;;;;;48.39;11.12;98090.91;10485628;28;20060;-72
2023/08/23 09:38:47;;;;;;;4.25;0.85;;;;;;;49.10;11.39;98090.97;10472134;28;20106;-72
2023/08/23 09:44:08;;;;;;;3.67;0.68;;;;;;;52.93;9.50;98079.53;10499635;28;20051;-71
2023/08/23 09:49:32;;;;;;;6.80;0.90;;;;;;;54.56;7.75;98081.19;10470820;28;20111;-73
2023/08/23 09:55:03;;;;;;;4.40;0.70;;;;;;;54.08;8.20;98084.13;10499889;28;20402;-71
2023/08/23 10:00:36;;;;;;;3.65;0.80;;;;;;;54.01;7.88;98077.38;10474520;28;20055;-71
2023/08/23 10:05:57;;;;;;;4.55;1.00;;;;;;;54.35;7.52;98070.03;10499194;28;20051;-74
2023/08/23 10:11:18;;;;;;;3.72;0.82;;;;;;;54.38;7.68;98074.22;10484481;28;20055;-71
2023/08/23 10:16:39;;;;;;;7.65;0.98;;;;;;;53.84;7.97;98059.81;10470518;28;20044;-73
2023/08/23 10:22:00;;;;;;;1.45;0.60;;;;;;;49.42;9.29;98057.91;10469983;28;20056;-72
2023/08/23 10:27:23;;;;;;;3.17;0.82;;;;;;;43.67;13.40;98048.38;10483906;28;20142;-71
2023/08/23 10:32:45;;;;;;;3.97;0.90;;;;;;;46.69;12.62;98050.06;10498789;28;20055;-72
2023/08/23 10:38:06;;;;;;;4.97;1.17;;;;;;;42.89;15.06;98040.53;10498388;28;20102;-72
2023/08/23 10:43:27;;;;;;;2.88;0.90;;;;;;;46.52;14.31;98043.25;10466559;28;20490;-72
2023/08/23 10:48:48;;;;;;;2.97;1.00;;;;;;;45.91;12.46;98048.34;10469255;28;20521;-72
2023/08/23 10:54:11;;;;;;;3.72;1.00;;;;;;;45.52;15.06;98042.22;10497747;28;20036;-71
2023/08/23 10:59:33;;;;;;;2.75;0.70;;;;;;;51.71;10.87;98040.88;10497782;28;20482;-72
2023/08/23 11:04:54;;;;;;;3.60;0.75;;;;;;;54.91;8.24;98038.59;10497671;28;20036;-71
2023/08/23 11:10:15;;;;;;;2.75;0.73;;;;;;;54.36;8.06;98032.59;10482708;28;20106;-72
2023/08/23 11:15:36;;;;;;;5.10;0.82;;;;;;;53.13;7.89;98017.19;10482195;28;20091;-71
2023/08/23 11:20:58;;;;;;;3.92;0.75;;;;;;;51.95;8.78;98020.69;10497208;28;20052;-71
2023/08/23 11:26:18;;;;;;;2.35;0.70;;;;;;;52.18;8.47;98019.22;10497348;28;20120;-71
2023/08/23 11:31:40;;;;;;;3.05;0.70;;;;;;;52.30;8.23;98023.94;10497008;28;20067;-72
2023/08/23 11:37:06;;;;;;;2.42;1.00;;;;;;;53.71;7.41;98012.66;10497267;28;20044;-70
2023/08/23 11:42:27;;;;;;;5.68;0.90;;;;;;;52.34;7.07;98017.59;10496851;28;20044;-72
2023/08/23 11:47:51;;;;;;;4.65;1.15;;;;;;;48.77;8.68;98016.00;10481926;28;20070;-73
2023/08/23 11:53:12;;;;;;;5.03;0.65;;;;;;;44.41;11.91;98015.78;10497145;28;20048;-72
2023/08/23 11:58:33;;;;;;;3.38;1.10;;;;;;;40.81;15.54;98015.81;10481835;28;20047;-72
2023/08/23 12:03:53;;;;;;;4.38;1.13;;;;;;;40.08;16.42;98011.31;10496171;28;20094;-73
2023/08/23 12:09:15;;;;;;;3.38;1.35;;;;;;;37.90;19.15;98013.91;10496127;28;20051;-70
2023/08/23 12:14:37;;;;;;;4.25;0.88;;;;;;;37.30;19.98;98014.66;10496311;28;20090;-72
2023/08/23 12:19:58;;;;;;;4.65;1.20;;;;;;;36.51;20.74;98004.19;10481298;28;20056;-72
2023/08/23 12:25:19;;;;;;;4.10;1.30;;;;;;;35.62;21.61;98006.88;10481806;28;20527;-69
2023/08/23 12:30:40;;;;;;;3.90;0.90;;;;;;;35.29;22.19;98001.94;10503368;28;20052;-70
2023/08/23 12:36:01;;;;;;;5.88;1.15;;;;;;;35.70;21.75;98007.31;10503364;28;20036;-71
2023/08/23 12:41:23;;;;;;;2.72;1.13;;;;;;;35.91;22.26;97998.06;10503185;28;20043;-71
2023/08/23 12:46:44;;;;;;;3.85;1.33;;;;;;;36.26;21.39;97980.25;10474131;28;20051;-71
2023/08/23 12:52:06;;;;;;;6.13;1.65;;;;;;;35.43;21.79;97981.25;10487455;28;20391;-71
2023/08/23 12:57:28;;;;;;;6.25;1.50;;;;;;;34.40;23.32;97976.66;10459704;28;20040;-71
2023/08/23 13:02:49;;;;;;;2.50;1.20;;;;;;;33.75;24.40;97972.28;10487347;28;20064;-72
2023/08/23 13:08:10;;;;;;;2.25;1.13;;;;;;;34.14;24.30;97963.47;10502265;28;20478;-71
2023/08/23 13:13:30;;;;;;;2.35;1.20;;;;;;;34.92;23.47;97958.69;10501691;28;20049;-72
2023/08/23 13:18:51;;;;;;;4.30;1.40;;;;;;;34.37;24.06;97954.97;10501717;28;20048;-71
2023/08/23 13:24:20;;;;;;;5.32;1.55;;;;;;;33.50;25.59;97954.03;10486434;28;20055;-71
2023/08/23 13:29:44;;;;;;;4.15;1.63;;;;;;;33.69;24.79;97949.28;10472472;28;20547;-71
2023/08/23 13:35:05;;;;;;;4.47;1.75;;;;;;;33.82;24.65;97952.59;10500703;28;20094;-71
2023/08/23 13:40:27;;;;;;;5.57;1.55;;;;;;;33.52;25.26;97939.50;10485903;28;20436;-71
2023/08/23 13:45:47;;;;;;;;;;;;;;;33.29;25.61;97934.13;10500890;28;20051;-72
2023/08/23 13:51:09;;;;;;;5.17;1.70;;;;;;;33.10;25.55;97938.16;10485238;28;19924;-71
2023/08/23 13:56:30;;;;;;;4.38;1.40;;;;;;;32.80;26.32;97925.66;10500247;28;20105;-71
2023/08/23 14:01:51;;;;;;;2.53;1.40;;;;;;;33.04;26.16;97930.31;10499658;28;20121;-71
2023/08/23 14:07:15;;;;;;;;;;;;;;;33.31;25.76;97922.56;10499929;28;20398;-72
2023/08/23 14:12:35;;;;;;;5.70;1.90;;;;;;;33.43;25.67;97921.59;10499085;28;19928;-71
2023/08/23 14:17:56;;;;;;;8.10;1.58;;;;;;;33.71;25.61;97919.56;10484021;28;20467;-71
2023/08/23 14:23:17;;;;;;;3.83;1.90;;;;;;;33.70;24.80;97912.38;10498763;28;20439;-70
2023/08/23 14:28:38;;;;;;;3.53;1.65;;;;;;;33.33;25.29;97915.28;10497696;28;20417;-71
2023/08/23 14:33:58;;;;;;;5.32;2.15;;;;;;;33.05;25.43;97911.50;10469425;28;20402;-71
2023/08/23 14:39:19;;;;;;;2.88;2.05;;;;;;;32.90;25.32;97913.22;10498168;28;20048;-71
2023/08/23 14:44:42;;;;;;;2.95;1.85;;;;;;;32.18;26.05;97902.16;10483394;28;20052;-71
2023/08/23 14:50:06;;;;;;;7.90;1.83;;;;;;;31.88;26.85;97909.84;10482578;28;20052;-70
2023/08/23 14:55:32;;;;;;;5.55;2.08;;;;;;;31.78;27.12;97906.41;10497754;28;20040;-70
2023/08/23 15:00:54;;;;;;;4.30;2.25;;;;;;;31.58;27.08;97904.50;10483574;28;20054;-71
2023/08/23 15:06:15;;;;;;;7.70;1.90;;;;;;;31.55;27.86;97903.78;10497659;28;20119;-69
2023/08/23 15:11:36;;;;;;;3.58;1.75;;;;;;;31.46;27.87;97898.88;10497807;28;20044;-71
2023/08/23 15:16:57;;;;;;;7.75;1.98;;;;;;;31.22;28.23;97899.91;10497349;28;20505;-71
2023/08/23 15:22:18;;;;;;;7.07;2.40;;;;;;;30.67;28.40;97891.84;10468663;28;20056;-70
2023/08/23 15:27:42;;;;;;;6.13;1.90;;;;;;;30.25;29.26;97899.41;10497186;28;20059;-70
2023/08/23 15:33:08;;;;;;;5.57;2.03;;;;;;;30.23;29.45;97890.78;10481776;28;20045;-71
2023/08/23 15:38:29;;;;;;;7.20;2.15;;;;;;;30.33;29.53;97895.75;10497061;28;20068;-71
2023/08/23 15:43:50;;;;;;;4.40;2.17;;;;;;;30.38;29.45;97909.34;10482089;28;20135;-70
2023/08/23 15:49:11;;;;;;;3.38;2.10;;;;;;;30.42;29.52;97903.56;10496084;28;20390;-70
2023/08/23 15:54:32;;;;;;;3.05;1.83;;;;;;;30.32;29.99;97894.31;10496500;28;20048;-71
2023/08/23 15:59:54;;;;;;;5.65;2.22;;;;;;;30.38;30.12;97905.75;10496596;28;20048;-70
2023/08/23 16:05:14;;;;;;;5.30;1.90;;;;;;;30.26;29.96;97900.81;10504412;28;20045;-69
2023/08/23 16:10:40;;;;;;;6.40;1.63;;;;;;;29.92;30.43;97902.50;10504443;28;20397;-70
2023/08/23 16:16:01;;;;;;;3.75;1.90;;;;;;;29.68;30.97;97899.06;10488949;28;20040;-70
2023/08/23 16:21:22;;;;;;;6.70;2.03;;;;;;;29.52;31.30;97891.22;10434056;28;20569;-67
2023/08/23 16:26:43;;;;;;;4.47;2.08;;;;;;;29.38;31.56;97889.13;10420280;28;20476;-70
2023/08/23 16:32:04;;;;;;;2.55;1.70;;;;;;;29.30;31.62;97892.03;10420820;28;20486;-69
2023/08/23 16:37:25;;;;;;;4.20;1.83;;;;;;;29.21;31.94;97896.38;10420758;28;20049;-69
2023/08/23 16:42:49;;;;;;;7.50;2.00;;;;;;;29.05;32.56;97905.81;10420353;28;20108;-70
2023/08/23 16:48:10;;;;;;;7.78;2.00;;;;;;;28.76;32.47;97900.09;10420208;28;20427;-70
2023/08/23 16:53:31;;;;;;;7.07;2.13;;;;;;;28.50;33.47;97903.03;10419082;28;20049;-69
2023/08/23 16:58:52;;;;;;;5.65;1.85;;;;;;;28.27;33.78;97910.88;10418710;28;20120;-69
2023/08/23 17:04:13;;;;;;;6.40;2.00;;;;;;;28.18;33.91;97904.44;10419794;28;20045;-69
2023/08/23 17:09:42;;;;;;;6.07;1.67;;;;;;;28.10;34.05;97915.91;10419475;28;20280;-69
2023/08/23 17:15:03;;;;;;;7.80;2.00;;;;;;;28.02;34.14;97912.31;10418732;28;20049;-69
2023/08/23 17:20:26;;;;;;;9.83;2.43;;;;;;;27.84;34.26;97913.72;10458774;28;20053;-70
2023/08/23 17:25:46;;;;;;;;;;;;;;;27.66;35.17;97920.13;10502105;28;20123;-70
2023/08/23 17:31:08;;;;;;;3.88;1.88;;;;;;;27.56;34.95;97922.94;10500985;28;19946;-69
2023/08/23 17:36:29;;;;;;;4.45;2.28;;;;;;;27.44;35.36;97925.78;10500990;28;20075;-68
2023/08/23 17:41:50;;;;;;;6.00;2.20;;;;;;;27.26;35.27;97929.28;10485822;28;20060;-68
2023/08/23 17:47:11;;;;;;;8.48;2.25;;;;;;;27.12;35.75;97931.34;10500523;28;20041;-68
2023/08/23 17:52:32;;;;;;;4.22;2.20;;;;;;;27.00;35.73;97926.25;10500337;28;20094;-68
2023/08/23 17:57:53;;;;;;;4.15;2.60;;;;;;;26.82;36.70;97941.19;10500242;28;20068;-67
2023/08/23 18:03:14;;;;;;;4.28;1.98;;;;;;;26.54;37.01;97947.47;10498742;28;20044;-68
2023/08/23 18:08:34;;;;;;;3.85;2.40;;;;;;;26.34;37.50;97947.97;10484691;28;20504;-68
2023/08/23 18:13:55;;;;;;;7.13;2.60;;;;;;;26.18;37.86;97953.56;10498396;28;20128;-65
2023/08/23 18:19:16;;;;;;;4.93;1.92;;;;;;;25.99;38.05;97960.53;10498221;28;20555;-65
2023/08/23 18:24:38;;;;;;;3.37;1.97;;;;;;;25.85;38.79;97953.25;10483388;28;20486;-65
2023/08/23 18:29:59;;;;;;;4.47;1.70;;;;;;;25.73;38.75;97976.00;10498984;28;20064;-65
2023/08/23 18:35:20;;;;;;;4.43;1.77;;;;;;;25.62;38.75;97980.84;10483800;28;20474;-66
2023/08/23 18:40:40;;;;;;;3.53;1.48;;;;;;;25.50;39.53;98000.00;10498414;28;20085;-66
2023/08/23 18:46:01;;;;;;;4.07;1.90;;;;;;;25.40;39.71;97998.44;10483758;28;20497;-65
2023/08/23 18:51:22;;;;;;;5.30;1.88;;;;;;;25.33;40.15;97999.78;10483333;28;20138;-66
2023/08/23 18:56:42;;;;;;;5.00;1.83;;;;;;;25.24;40.33;97989.66;10498165;28;20124;-66
2023/08/23 19:02:03;;;;;;;4.22;1.55;;;;;;;25.19;40.37;97996.75;10497185;28;20076;-66
2023/08/23 19:07:25;;;;;;;8.27;1.60;;;;;;;25.09;40.62;98008.00;10498131;28;20040;-66
2023/08/23 19:12:46;;;;;;;3.50;1.77;;;;;;;25.02;40.56;98010.06;10468649;28;20075;-66
2023/08/23 19:18:07;;;;;;;3.17;1.50;;;;;;;24.93;40.94;98010.59;10497382;28;20052;-66
2023/08/23 19:23:28;;;;;;;3.65;1.50;;;;;;;24.87;41.21;98011.22;10468759;28;20071;-67
2023/08/23 19:28:50;;;;;;;4.75;1.55;;;;;;;24.83;41.40;98003.31;10497578;28;20068;-66
2023/08/23 19:34:11;;;;;;;4.03;1.58;;;;;;;24.77;41.79;98016.78;10497707;28;20550;-66
2023/08/23 19:39:32;;;;;;;3.28;1.23;;;;;;;24.66;41.65;98018.75;10505726;28;20036;-66
2023/08/23 19:44:59;;;;;;;4.22;1.90;;;;;;;24.55;41.89;98026.41;10505810;28;20171;-66
2023/08/23 19:50:20;;;;;;;8.13;1.88;;;;;;;24.48;42.13;98038.41;10505543;28;20060;-66
2023/08/23 19:55:45;;;;;;;6.07;1.70;;;;;;;24.42;42.36;98041.19;10505279;28;20093;-66
2023/08/23 20:01:06;;;;;;;7.75;1.70;;;;;;;24.37;42.53;98057.47;10490207;28;20055;-66
2023/08/23 20:06:27;;;;;;;4.22;1.42;;;;;;;24.36;42.48;98056.03;10489883;28;20072;-66
2023/08/23 20:11:50;;;;;;;3.25;1.50;;;;;;;24.34;42.31;98061.00;10504589;28;20237;-66
2023/08/23 20:17:11;;;;;;;5.88;1.90;;;;;;;24.34;42.67;98061.72;10504293;28;20060;-66
2023/08/23 20:22:33;;;;;;;4.05;1.40;;;;;;;24.27;42.61;98060.13;10504181;28;20080;-66
2023/08/23 20:27:54;;;;;;;6.40;1.70;;;;;;;24.21;42.72;98054.31;10489343;28;20393;-66
2023/08/23 20:33:15;;;;;;;6.00;1.70;;;;;;;24.15;43.13;98062.75;10502697;28;20416;-66
2023/08/23 20:38:36;;;;;;;4.28;1.60;;;;;;;24.07;43.23;98065.44;10503565;28;20140;-66
2023/08/23 20:43:57;;;;;;;8.25;1.65;;;;;;;24.03;43.35;98065.34;10503135;28;20048;-66
2023/08/23 20:49:18;;;;;;;4.88;1.65;;;;;;;23.99;43.27;98061.03;10502425;28;20543;-65
2023/08/23 20:54:39;;;;;;;2.45;1.40;;;;;;;23.95;43.61;98063.81;10502650;28;20072;-66
2023/08/23 21:00:00;;;;;;;3.72;1.50;;;;;;;23.88;43.58;98067.94;10487678;28;20044;-65
2023/08/23 21:05:21;;;;;;;2.65;1.38;;;;;;;23.81;43.94;98062.78;10502751;28;20072;-67
2023/08/23 21:10:42;;;;;;;3.40;1.77;;;;;;;23.72;44.21;98069.72;10502263;28;20143;-66
2023/08/23 21:16:04;;;;;;;4.35;1.60;;;;;;;23.54;44.21;98070.03;10487390;28;20491;-66
2023/08/23 21:21:25;;;;;;;6.47;2.05;;;;;;;23.41;44.64;98060.50;10501742;28;20141;-66
2023/08/23 21:26:46;;;;;;;4.80;1.60;;;;;;;23.30;44.90;98064.53;10472799;28;20056;-66
2023/08/23 21:32:07;;;;;;;3.20;1.30;;;;;;;23.19;45.29;98055.03;10501172;28;20080;-66
2023/08/23 21:37:28;;;;;;;2.22;1.45;;;;;;;23.06;45.48;98053.31;10486403;28;20455;-66
2023/08/23 21:42:49;;;;;;;5.00;1.58;;;;;;;22.94;45.89;98048.06;10500986;28;20101;-66
2023/08/23 21:48:10;;;;;;;3.30;1.30;;;;;;;22.79;45.86;98055.50;10500695;28;20448;-66
2023/08/23 21:53:31;;;;;;;4.93;1.73;;;;;;;22.59;46.28;98051.44;10500739;28;20072;-66
2023/08/23 21:58:52;;;;;;;3.55;1.20;;;;;;;22.45;46.47;98061.06;10484197;28;20052;-66
2023/08/23 22:04:13;;;;;;;3.65;1.60;;;;;;;22.34;47.06;98062.19;10500184;28;20512;-66
2023/08/23 22:09:35;;;;;;;2.78;1.60;;;;;;;22.22;47.27;98056.19;10484753;28;20079;-67
2023/08/23 22:14:55;;;;;;;3.17;1.60;;;;;;;22.04;47.94;98056.41;10499772;28;20111;-66
2023/08/23 22:20:16;;;;;;;3.40;1.30;;;;;;;21.96;47.99;98053.31;10499619;28;20136;-66
2023/08/23 22:25:37;;;;;;;3.88;1.48;;;;;;;21.86;48.61;98059.44;10499318;28;20174;-66
2023/08/23 22:30:58;;;;;;;3.08;1.40;;;;;;;21.83;48.79;98062.91;10499179;28;20064;-66
2023/08/23 22:36:19;;;;;;;2.78;1.52;;;;;;;21.89;49.02;98060.22;10498765;28;20121;-65
2023/08/23 22:41:39;;;;;;;3.85;1.17;;;;;;;21.93;49.32;98061.06;10498809;28;20466;-66
2023/08/23 22:47:00;;;;;;;4.68;1.60;;;;;;;21.93;49.27;98061.06;10524091;28;20059;-67
2023/08/23 22:52:21;;;;;;;2.88;1.45;;;;;;;21.91;49.63;98066.72;10507885;28;20052;-66
2023/08/23 22:57:45;;;;;;;4.53;1.30;;;;;;;21.83;49.82;98065.75;10536958;28;20123;-68
2023/08/23 23:03:05;;;;;;;2.75;1.42;;;;;;;21.74;49.68;98067.63;10523291;28;20489;-70
2023/08/23 23:08:26;;;;;;;3.75;1.42;;;;;;;21.67;49.73;98068.84;10520937;28;20434;-71
2023/08/23 23:13:47;;;;;;;4.82;1.45;;;;;;;21.64;50.24;98073.03;10504182;28;20040;-67
2023/08/23 23:19:08;;;;;;;6.20;1.58;;;;;;;21.60;49.78;98073.63;10536860;28;20136;-68
2023/08/23 23:24:30;;;;;;;4.33;1.50;;;;;;;21.57;50.43;98068.53;10515565;28;20052;-68
2023/08/23 23:29:51;;;;;;;6.75;1.65;;;;;;;21.50;50.37;98069.75;10486661;28;20118;-68
2023/08/23 23:35:12;;;;;;;3.80;1.58;;;;;;;21.37;50.47;98075.06;10506473;28;20400;-68
2023/08/23 23:40:38;;;;;;;1.88;1.20;;;;;;;21.30;50.43;98064.19;10539022;28;20135;-68
2023/08/23 23:45:58;;;;;;;7.03;1.40;;;;;;;21.26;50.90;98064.06;10539212;28;20576;-67
2023/08/23 23:51:19;;;;;;;3.17;1.42;;;;;;;21.18;51.00;98069.47;10509761;28;20067;-66
2023/08/23 23:56:40;;;;;;;2.13;1.10;;;;;;;21.13;51.42;98079.97;10523950;28;20468;-67
